sensor_id;sensor_type;location;lat;lon;timestamp;temperature;humidity
38514;DHT22;24282;48.400;10.808;2023-11-21T00:00:31;7.30;88.60
38514;DHT22;24282;48.400;10.808;2023-11-21T00:02:57;7.30;88.60
38514;DHT22;24282;48.400;10.808;2023-11-21T00:05:23;7.30;88.70
38514;DHT22;24282;48.400;10.808;2023-11-21T00:07:49;7.30;88.80
38514;DHT22;24282;48.400;10.808;2023-11-21T00:10:14;7.30;88.80
38514;DHT22;24282;48.400;10.808;2023-11-21T00:12:41;7.30;88.80
38514;DHT22;24282;48.400;10.808;2023-11-21T00:15:08;7.30;88.70
38514;DHT22;24282;48.400;10.808;2023-11-21T00:17:39;7.20;88.60
38514;DHT22;24282;48.400;10.808;2023-11-21T00:20:06;7.30;88.60
38514;DHT22;24282;48.400;10.808;2023-11-21T00:22:33;7.40;88.20
38514;DHT22;24282;48.400;10.808;2023-11-21T00:24:59;7.40;87.90
38514;DHT22;24282;48.400;10.808;2023-11-21T00:27:25;7.40;87.90
38514;DHT22;24282;48.400;10.808;2023-11-21T00:29:51;7.40;87.90
38514;DHT22;24282;48.400;10.808;2023-11-21T00:32:17;7.40;88.00
38514;DHT22;24282;48.400;10.808;2023-11-21T00:34:42;7.40;87.90
38514;DHT22;24282;48.400;10.808;2023-11-21T00:37:08;7.50;87.80
38514;DHT22;24282;48.400;10.808;2023-11-21T00:39:34;7.50;87.70
38514;DHT22;24282;48.400;10.808;2023-11-21T00:42:01;7.50;87.60
38514;DHT22;24282;48.400;10.808;2023-11-21T00:44:26;7.60;87.20
38514;DHT22;24282;48.400;10.808;2023-11-21T00:46:52;7.70;87.00
38514;DHT22;24282;48.400;10.808;2023-11-21T00:49:18;7.70;86.90
38514;DHT22;24282;48.400;10.808;2023-11-21T00:51:43;7.70;86.90
38514;DHT22;24282;48.400;10.808;2023-11-21T00:54:09;7.70;87.00
38514;DHT22;24282;48.400;10.808;2023-11-21T00:56:35;7.70;87.20
38514;DHT22;24282;48.400;10.808;2023-11-21T00:59:00;7.70;87.30
38514;DHT22;24282;48.400;10.808;2023-11-21T01:01:26;7.60;87.40
38514;DHT22;24282;48.400;10.808;2023-11-21T01:03:52;7.70;87.50
38514;DHT22;24282;48.400;10.808;2023-11-21T01:06:18;7.70;87.50
38514;DHT22;24282;48.400;10.808;2023-11-21T01:08:45;7.70;87.30
38514;DHT22;24282;48.400;10.808;2023-11-21T01:11:11;7.70;87.00
38514;DHT22;24282;48.400;10.808;2023-11-21T01:13:41;7.80;86.70
38514;DHT22;24282;48.400;10.808;2023-11-21T01:16:08;7.80;86.40
38514;DHT22;24282;48.400;10.808;2023-11-21T01:18:35;7.90;86.20
38514;DHT22;24282;48.400;10.808;2023-11-21T01:21:01;7.80;86.20
38514;DHT22;24282;48.400;10.808;2023-11-21T01:23:27;7.80;86.30
38514;DHT22;24282;48.400;10.808;2023-11-21T01:25:53;7.80;86.20
38514;DHT22;24282;48.400;10.808;2023-11-21T01:28:19;7.80;86.60
38514;DHT22;24282;48.400;10.808;2023-11-21T01:30:45;7.80;86.50
38514;DHT22;24282;48.400;10.808;2023-11-21T01:33:11;7.80;86.30
38514;DHT22;24282;48.400;10.808;2023-11-21T01:35:37;7.70;86.70
38514;DHT22;24282;48.400;10.808;2023-11-21T01:38:03;7.70;86.90
38514;DHT22;24282;48.400;10.808;2023-11-21T01:40:29;7.70;86.90
38514;DHT22;24282;48.400;10.808;2023-11-21T01:42:56;7.70;87.00
38514;DHT22;24282;48.400;10.808;2023-11-21T01:45:23;7.70;87.00
38514;DHT22;24282;48.400;10.808;2023-11-21T01:47:50;7.70;87.20
38514;DHT22;24282;48.400;10.808;2023-11-21T01:50:17;7.60;87.40
38514;DHT22;24282;48.400;10.808;2023-11-21T01:52:45;7.50;87.60
38514;DHT22;24282;48.400;10.808;2023-11-21T01:55:11;7.50;87.80
38514;DHT22;24282;48.400;10.808;2023-11-21T01:57:38;7.50;88.00
38514;DHT22;24282;48.400;10.808;2023-11-21T02:00:04;7.50;88.10
38514;DHT22;24282;48.400;10.808;2023-11-21T02:02:46;7.50;88.20
38514;DHT22;24282;48.400;10.808;2023-11-21T02:05:14;7.50;88.30
38514;DHT22;24282;48.400;10.808;2023-11-21T02:07:41;7.50;88.30
38514;DHT22;24282;48.400;10.808;2023-11-21T02:10:09;7.50;88.40
38514;DHT22;24282;48.400;10.808;2023-11-21T02:12:35;7.40;88.50
38514;DHT22;24282;48.400;10.808;2023-11-21T02:15:05;7.40;88.60
38514;DHT22;24282;48.400;10.808;2023-11-21T02:17:38;7.40;88.70
38514;DHT22;24282;48.400;10.808;2023-11-21T02:20:04;7.40;88.80
38514;DHT22;24282;48.400;10.808;2023-11-21T02:22:36;7.40;88.90
38514;DHT22;24282;48.400;10.808;2023-11-21T02:25:04;7.40;89.00
38514;DHT22;24282;48.400;10.808;2023-11-21T02:27:30;7.40;89.00
38514;DHT22;24282;48.400;10.808;2023-11-21T02:29:56;7.40;89.00
38514;DHT22;24282;48.400;10.808;2023-11-21T02:32:22;7.40;89.00
38514;DHT22;24282;48.400;10.808;2023-11-21T02:34:48;7.40;89.00
38514;DHT22;24282;48.400;10.808;2023-11-21T02:37:15;7.40;89.00
38514;DHT22;24282;48.400;10.808;2023-11-21T02:39:41;7.40;89.00
38514;DHT22;24282;48.400;10.808;2023-11-21T02:42:07;7.40;89.10
38514;DHT22;24282;48.400;10.808;2023-11-21T02:44:32;7.40;89.00
38514;DHT22;24282;48.400;10.808;2023-11-21T02:46:58;7.30;89.10
38514;DHT22;24282;48.400;10.808;2023-11-21T02:49:24;7.30;89.10
38514;DHT22;24282;48.400;10.808;2023-11-21T02:51:54;7.30;89.10
38514;DHT22;24282;48.400;10.808;2023-11-21T02:54:20;7.30;89.10
38514;DHT22;24282;48.400;10.808;2023-11-21T02:56:48;7.30;89.10
38514;DHT22;24282;48.400;10.808;2023-11-21T02:59:15;7.30;89.10
38514;DHT22;24282;48.400;10.808;2023-11-21T03:01:41;7.20;89.10
38514;DHT22;24282;48.400;10.808;2023-11-21T03:04:08;7.20;89.10
38514;DHT22;24282;48.400;10.808;2023-11-21T03:06:33;7.20;89.10
38514;DHT22;24282;48.400;10.808;2023-11-21T03:09:00;7.20;89.00
38514;DHT22;24282;48.400;10.808;2023-11-21T03:11:25;7.20;89.00
38514;DHT22;24282;48.400;10.808;2023-11-21T03:13:51;7.20;89.00
38514;DHT22;24282;48.400;10.808;2023-11-21T03:16:18;7.20;89.00
38514;DHT22;24282;48.400;10.808;2023-11-21T03:18:45;7.20;88.90
38514;DHT22;24282;48.400;10.808;2023-11-21T03:21:12;7.10;88.90
38514;DHT22;24282;48.400;10.808;2023-11-21T03:23:38;7.10;88.90
38514;DHT22;24282;48.400;10.808;2023-11-21T03:26:04;7.10;89.00
38514;DHT22;24282;48.400;10.808;2023-11-21T03:28:30;7.10;88.90
38514;DHT22;24282;48.400;10.808;2023-11-21T03:30:56;7.10;88.90
38514;DHT22;24282;48.400;10.808;2023-11-21T03:33:23;7.10;88.80
38514;DHT22;24282;48.400;10.808;2023-11-21T03:35:49;7.10;88.70
38514;DHT22;24282;48.400;10.808;2023-11-21T03:38:15;7.10;88.70
38514;DHT22;24282;48.400;10.808;2023-11-21T03:40:41;7.10;88.60
38514;DHT22;24282;48.400;10.808;2023-11-21T03:43:07;7.10;88.60
38514;DHT22;24282;48.400;10.808;2023-11-21T03:45:33;7.10;88.50
38514;DHT22;24282;48.400;10.808;2023-11-21T03:47:59;7.10;88.40
38514;DHT22;24282;48.400;10.808;2023-11-21T03:50:30;7.20;88.30
38514;DHT22;24282;48.400;10.808;2023-11-21T03:52:57;7.20;88.30
38514;DHT22;24282;48.400;10.808;2023-11-21T03:55:23;7.10;88.40
38514;DHT22;24282;48.400;10.808;2023-11-21T03:57:52;7.10;88.40
38514;DHT22;24282;48.400;10.808;2023-11-21T04:00:19;7.10;88.50
38514;DHT22;24282;48.400;10.808;2023-11-21T04:02:47;7.10;88.40
38514;DHT22;24282;48.400;10.808;2023-11-21T04:05:13;7.10;88.40
38514;DHT22;24282;48.400;10.808;2023-11-21T04:07:39;7.10;88.40
38514;DHT22;24282;48.400;10.808;2023-11-21T04:10:06;7.10;88.30
38514;DHT22;24282;48.400;10.808;2023-11-21T04:12:35;7.20;88.20
38514;DHT22;24282;48.400;10.808;2023-11-21T04:15:01;7.20;88.00
38514;DHT22;24282;48.400;10.808;2023-11-21T04:17:27;7.20;87.90
38514;DHT22;24282;48.400;10.808;2023-11-21T04:19:52;7.20;87.80
38514;DHT22;24282;48.400;10.808;2023-11-21T04:22:18;7.20;87.90
38514;DHT22;24282;48.400;10.808;2023-11-21T04:24:44;7.20;87.80
38514;DHT22;24282;48.400;10.808;2023-11-21T04:27:10;7.20;87.90
38514;DHT22;24282;48.400;10.808;2023-11-21T04:29:35;7.20;88.00
38514;DHT22;24282;48.400;10.808;2023-11-21T04:32:02;7.20;88.00
38514;DHT22;24282;48.400;10.808;2023-11-21T04:34:28;7.20;88.00
38514;DHT22;24282;48.400;10.808;2023-11-21T04:36:56;7.10;87.90
38514;DHT22;24282;48.400;10.808;2023-11-21T04:39:22;7.20;87.90
38514;DHT22;24282;48.400;10.808;2023-11-21T04:41:49;7.20;87.90
38514;DHT22;24282;48.400;10.808;2023-11-21T04:44:15;7.20;87.70
38514;DHT22;24282;48.400;10.808;2023-11-21T04:46:41;7.20;87.70
38514;DHT22;24282;48.400;10.808;2023-11-21T04:49:07;7.20;87.80
38514;DHT22;24282;48.400;10.808;2023-11-21T04:51:33;7.20;87.80
38514;DHT22;24282;48.400;10.808;2023-11-21T04:53:59;7.20;87.60
38514;DHT22;24282;48.400;10.808;2023-11-21T04:56:25;7.20;87.40
38514;DHT22;24282;48.400;10.808;2023-11-21T04:58:50;7.20;87.50
38514;DHT22;24282;48.400;10.808;2023-11-21T05:01:16;7.30;87.40
38514;DHT22;24282;48.400;10.808;2023-11-21T05:03:42;7.30;87.20
38514;DHT22;24282;48.400;10.808;2023-11-21T05:06:09;7.30;87.10
38514;DHT22;24282;48.400;10.808;2023-11-21T05:08:35;7.30;87.10
38514;DHT22;24282;48.400;10.808;2023-11-21T05:11:02;7.30;87.10
38514;DHT22;24282;48.400;10.808;2023-11-21T05:13:28;7.30;86.80
38514;DHT22;24282;48.400;10.808;2023-11-21T05:15:56;7.20;86.90
38514;DHT22;24282;48.400;10.808;2023-11-21T05:18:25;7.20;87.00
38514;DHT22;24282;48.400;10.808;2023-11-21T05:20:52;7.20;87.10
38514;DHT22;24282;48.400;10.808;2023-11-21T05:23:19;7.10;87.00
38514;DHT22;24282;48.400;10.808;2023-11-21T05:25:45;7.10;87.00
38514;DHT22;24282;48.400;10.808;2023-11-21T05:28:12;7.10;87.10
38514;DHT22;24282;48.400;10.808;2023-11-21T05:30:37;7.10;87.20
38514;DHT22;24282;48.400;10.808;2023-11-21T05:33:05;7.10;87.20
38514;DHT22;24282;48.400;10.808;2023-11-21T05:35:31;7.00;87.30
38514;DHT22;24282;48.400;10.808;2023-11-21T05:37:56;7.00;87.40
38514;DHT22;24282;48.400;10.808;2023-11-21T05:40:22;7.00;87.40
38514;DHT22;24282;48.400;10.808;2023-11-21T05:42:48;7.00;87.50
38514;DHT22;24282;48.400;10.808;2023-11-21T05:45:14;7.00;87.60
38514;DHT22;24282;48.400;10.808;2023-11-21T05:47:43;7.00;87.60
38514;DHT22;24282;48.400;10.808;2023-11-21T05:50:10;7.00;87.70
38514;DHT22;24282;48.400;10.808;2023-11-21T05:52:41;6.90;87.70
38514;DHT22;24282;48.400;10.808;2023-11-21T05:55:07;6.90;87.80
38514;DHT22;24282;48.400;10.808;2023-11-21T05:57:34;6.90;87.90
38514;DHT22;24282;48.400;10.808;2023-11-21T06:02:38;6.80;87.80
38514;DHT22;24282;48.400;10.808;2023-11-21T06:05:08;6.70;87.70
38514;DHT22;24282;48.400;10.808;2023-11-21T06:07:34;6.70;87.70
38514;DHT22;24282;48.400;10.808;2023-11-21T06:10:02;6.80;87.80
38514;DHT22;24282;48.400;10.808;2023-11-21T06:12:31;6.70;87.80
38514;DHT22;24282;48.400;10.808;2023-11-21T06:15:04;6.70;87.60
38514;DHT22;24282;48.400;10.808;2023-11-21T06:17:34;6.70;87.60
38514;DHT22;24282;48.400;10.808;2023-11-21T06:20:05;6.70;87.60
38514;DHT22;24282;48.400;10.808;2023-11-21T06:22:42;6.60;87.70
38514;DHT22;24282;48.400;10.808;2023-11-21T06:25:08;6.60;87.70
38514;DHT22;24282;48.400;10.808;2023-11-21T06:27:39;6.50;87.70
38514;DHT22;24282;48.400;10.808;2023-11-21T06:30:06;6.50;87.80
38514;DHT22;24282;48.400;10.808;2023-11-21T06:32:32;6.50;87.80
38514;DHT22;24282;48.400;10.808;2023-11-21T06:34:58;6.50;87.80
38514;DHT22;24282;48.400;10.808;2023-11-21T06:37:27;6.40;87.80
38514;DHT22;24282;48.400;10.808;2023-11-21T06:39:54;6.50;87.80
38514;DHT22;24282;48.400;10.808;2023-11-21T06:42:19;6.40;87.70
38514;DHT22;24282;48.400;10.808;2023-11-21T06:44:46;6.40;87.70
38514;DHT22;24282;48.400;10.808;2023-11-21T06:47:12;6.40;87.70
38514;DHT22;24282;48.400;10.808;2023-11-21T06:49:38;6.30;87.70
38514;DHT22;24282;48.400;10.808;2023-11-21T06:52:04;6.30;87.80
38514;DHT22;24282;48.400;10.808;2023-11-21T06:54:33;6.40;87.70
38514;DHT22;24282;48.400;10.808;2023-11-21T06:56:59;6.30;87.70
38514;DHT22;24282;48.400;10.808;2023-11-21T06:59:25;6.40;87.70
38514;DHT22;24282;48.400;10.808;2023-11-21T07:01:51;6.30;87.70
38514;DHT22;24282;48.400;10.808;2023-11-21T07:04:16;6.30;87.70
38514;DHT22;24282;48.400;10.808;2023-11-21T07:06:43;6.30;87.70
38514;DHT22;24282;48.400;10.808;2023-11-21T07:09:09;6.30;87.70
38514;DHT22;24282;48.400;10.808;2023-11-21T07:11:37;6.30;87.70
38514;DHT22;24282;48.400;10.808;2023-11-21T07:14:04;6.30;87.90
38514;DHT22;24282;48.400;10.808;2023-11-21T07:16:39;6.30;88.00
38514;DHT22;24282;48.400;10.808;2023-11-21T07:19:05;6.40;88.10
38514;DHT22;24282;48.400;10.808;2023-11-21T07:21:37;6.40;88.20
38514;DHT22;24282;48.400;10.808;2023-11-21T07:24:03;6.50;88.20
38514;DHT22;24282;48.400;10.808;2023-11-21T07:26:30;6.50;88.20
38514;DHT22;24282;48.400;10.808;2023-11-21T07:28:56;6.50;88.20
38514;DHT22;24282;48.400;10.808;2023-11-21T07:31:22;6.50;88.10
38514;DHT22;24282;48.400;10.808;2023-11-21T07:33:49;6.50;88.10
38514;DHT22;24282;48.400;10.808;2023-11-21T07:36:16;6.50;88.00
38514;DHT22;24282;48.400;10.808;2023-11-21T07:38:44;6.60;88.20
38514;DHT22;24282;48.400;10.808;2023-11-21T07:41:10;6.70;88.30
38514;DHT22;24282;48.400;10.808;2023-11-21T07:43:36;6.80;88.30
38514;DHT22;24282;48.400;10.808;2023-11-21T07:46:03;6.90;87.80
38514;DHT22;24282;48.400;10.808;2023-11-21T07:48:30;7.00;87.70
38514;DHT22;24282;48.400;10.808;2023-11-21T07:50:57;7.00;87.70
38514;DHT22;24282;48.400;10.808;2023-11-21T07:53:24;7.00;87.40
38514;DHT22;24282;48.400;10.808;2023-11-21T07:55:51;7.10;87.20
38514;DHT22;24282;48.400;10.808;2023-11-21T07:58:17;7.10;87.00
38514;DHT22;24282;48.400;10.808;2023-11-21T08:00:44;7.10;87.10
38514;DHT22;24282;48.400;10.808;2023-11-21T08:03:09;7.10;87.00
38514;DHT22;24282;48.400;10.808;2023-11-21T08:05:37;7.10;87.10
38514;DHT22;24282;48.400;10.808;2023-11-21T08:08:02;7.20;87.20
38514;DHT22;24282;48.400;10.808;2023-11-21T08:10:28;7.20;86.90
38514;DHT22;24282;48.400;10.808;2023-11-21T08:12:55;7.20;87.00
38514;DHT22;24282;48.400;10.808;2023-11-21T08:15:21;7.20;87.20
38514;DHT22;24282;48.400;10.808;2023-11-21T08:17:47;7.20;87.30
38514;DHT22;24282;48.400;10.808;2023-11-21T08:20:14;7.30;87.20
38514;DHT22;24282;48.400;10.808;2023-11-21T08:22:42;7.40;87.10
38514;DHT22;24282;48.400;10.808;2023-11-21T08:25:08;7.40;86.90
38514;DHT22;24282;48.400;10.808;2023-11-21T08:27:34;7.40;86.80
38514;DHT22;24282;48.400;10.808;2023-11-21T08:30:03;7.40;86.70
38514;DHT22;24282;48.400;10.808;2023-11-21T08:32:29;7.40;86.80
38514;DHT22;24282;48.400;10.808;2023-11-21T08:34:59;7.50;87.00
38514;DHT22;24282;48.400;10.808;2023-11-21T08:37:25;7.50;86.80
38514;DHT22;24282;48.400;10.808;2023-11-21T08:39:52;7.50;86.90
38514;DHT22;24282;48.400;10.808;2023-11-21T08:42:19;7.50;86.90
38514;DHT22;24282;48.400;10.808;2023-11-21T08:44:45;7.60;86.90
38514;DHT22;24282;48.400;10.808;2023-11-21T08:47:11;7.60;86.80
38514;DHT22;24282;48.400;10.808;2023-11-21T08:49:37;7.70;87.80
38514;DHT22;24282;48.400;10.808;2023-11-21T08:52:03;7.70;87.50
38514;DHT22;24282;48.400;10.808;2023-11-21T08:54:30;7.90;86.40
38514;DHT22;24282;48.400;10.808;2023-11-21T08:56:57;7.80;86.10
38514;DHT22;24282;48.400;10.808;2023-11-21T08:59:24;7.90;85.90
38514;DHT22;24282;48.400;10.808;2023-11-21T09:01:50;7.90;85.80
38514;DHT22;24282;48.400;10.808;2023-11-21T09:04:16;7.90;85.00
38514;DHT22;24282;48.400;10.808;2023-11-21T09:06:42;7.80;85.20
38514;DHT22;24282;48.400;10.808;2023-11-21T09:09:08;7.70;85.70
38514;DHT22;24282;48.400;10.808;2023-11-21T09:11:38;7.70;86.20
38514;DHT22;24282;48.400;10.808;2023-11-21T09:14:04;7.70;86.60
38514;DHT22;24282;48.400;10.808;2023-11-21T09:16:30;7.70;86.80
38514;DHT22;24282;48.400;10.808;2023-11-21T09:18:57;7.80;86.80
38514;DHT22;24282;48.400;10.808;2023-11-21T09:21:22;7.80;86.80
38514;DHT22;24282;48.400;10.808;2023-11-21T09:23:49;7.80;86.90
38514;DHT22;24282;48.400;10.808;2023-11-21T09:26:15;7.90;86.80
38514;DHT22;24282;48.400;10.808;2023-11-21T09:28:43;7.90;86.70
38514;DHT22;24282;48.400;10.808;2023-11-21T09:31:13;7.90;86.70
38514;DHT22;24282;48.400;10.808;2023-11-21T09:33:44;8.00;86.80
38514;DHT22;24282;48.400;10.808;2023-11-21T09:36:13;8.00;86.60
38514;DHT22;24282;48.400;10.808;2023-11-21T09:38:40;8.00;86.70
38514;DHT22;24282;48.400;10.808;2023-11-21T09:41:13;8.00;86.70
38514;DHT22;24282;48.400;10.808;2023-11-21T09:43:45;8.00;86.50
38514;DHT22;24282;48.400;10.808;2023-11-21T09:46:12;8.00;86.60
38514;DHT22;24282;48.400;10.808;2023-11-21T09:48:47;8.10;86.70
38514;DHT22;24282;48.400;10.808;2023-11-21T09:51:15;8.20;86.20
38514;DHT22;24282;48.400;10.808;2023-11-21T09:53:44;8.20;86.10
38514;DHT22;24282;48.400;10.808;2023-11-21T09:56:10;8.40;86.10
38514;DHT22;24282;48.400;10.808;2023-11-21T09:58:36;8.30;85.70
38514;DHT22;24282;48.400;10.808;2023-11-21T10:01:03;8.30;85.70
38514;DHT22;24282;48.400;10.808;2023-11-21T10:03:35;8.30;85.70
38514;DHT22;24282;48.400;10.808;2023-11-21T10:06:03;8.40;85.40
38514;DHT22;24282;48.400;10.808;2023-11-21T10:08:31;8.40;85.20
38514;DHT22;24282;48.400;10.808;2023-11-21T10:10:57;8.40;85.30
38514;DHT22;24282;48.400;10.808;2023-11-21T10:13:26;8.50;85.60
38514;DHT22;24282;48.400;10.808;2023-11-21T10:15:52;8.50;85.50
38514;DHT22;24282;48.400;10.808;2023-11-21T10:18:18;8.70;84.70
38514;DHT22;24282;48.400;10.808;2023-11-21T10:20:44;8.70;84.40
38514;DHT22;24282;48.400;10.808;2023-11-21T10:23:19;8.80;85.10
38514;DHT22;24282;48.400;10.808;2023-11-21T10:25:45;8.90;85.00
38514;DHT22;24282;48.400;10.808;2023-11-21T10:28:10;8.90;84.30
38514;DHT22;24282;48.400;10.808;2023-11-21T10:30:38;8.90;83.60
38514;DHT22;24282;48.400;10.808;2023-11-21T10:33:05;9.00;83.00
38514;DHT22;24282;48.400;10.808;2023-11-21T10:35:47;9.00;83.80
38514;DHT22;24282;48.400;10.808;2023-11-21T10:38:17;9.00;83.50
38514;DHT22;24282;48.400;10.808;2023-11-21T10:40:44;9.00;83.30
38514;DHT22;24282;48.400;10.808;2023-11-21T10:43:10;9.10;83.10
38514;DHT22;24282;48.400;10.808;2023-11-21T10:45:37;9.10;83.10
38514;DHT22;24282;48.400;10.808;2023-11-21T10:48:10;9.00;83.00
38514;DHT22;24282;48.400;10.808;2023-11-21T10:50:37;9.00;83.00
38514;DHT22;24282;48.400;10.808;2023-11-21T10:53:04;9.00;82.70
38514;DHT22;24282;48.400;10.808;2023-11-21T10:55:33;9.00;82.60
38514;DHT22;24282;48.400;10.808;2023-11-21T10:58:01;9.00;83.00
38514;DHT22;24282;48.400;10.808;2023-11-21T11:00:28;8.90;83.50
38514;DHT22;24282;48.400;10.808;2023-11-21T11:02:55;8.80;84.10
38514;DHT22;24282;48.400;10.808;2023-11-21T11:05:23;8.80;84.80
38514;DHT22;24282;48.400;10.808;2023-11-21T11:08:05;8.90;83.80
38514;DHT22;24282;48.400;10.808;2023-11-21T11:10:31;8.80;83.40
38514;DHT22;24282;48.400;10.808;2023-11-21T11:12:58;8.90;83.40
38514;DHT22;24282;48.400;10.808;2023-11-21T11:15:25;8.90;83.40
38514;DHT22;24282;48.400;10.808;2023-11-21T11:17:52;8.80;83.40
38514;DHT22;24282;48.400;10.808;2023-11-21T11:20:18;8.90;83.40
38514;DHT22;24282;48.400;10.808;2023-11-21T11:23:04;9.00;82.90
38514;DHT22;24282;48.400;10.808;2023-11-21T11:28:47;9.40;82.60
38514;DHT22;24282;48.400;10.808;2023-11-21T11:34:26;9.90;81.80
38514;DHT22;24282;48.400;10.808;2023-11-21T11:37:01;10.20;81.20
38514;DHT22;24282;48.400;10.808;2023-11-21T11:39:35;10.30;80.80
38514;DHT22;24282;48.400;10.808;2023-11-21T11:42:03;10.50;80.20
38514;DHT22;24282;48.400;10.808;2023-11-21T11:47:16;10.30;79.10
38514;DHT22;24282;48.400;10.808;2023-11-21T11:52:37;10.00;78.60
38514;DHT22;24282;48.400;10.808;2023-11-21T11:55:04;9.90;78.90
38514;DHT22;24282;48.400;10.808;2023-11-21T11:57:31;9.80;79.70
38514;DHT22;24282;48.400;10.808;2023-11-21T12:02:54;9.60;80.60
38514;DHT22;24282;48.400;10.808;2023-11-21T12:05:23;9.50;81.20
38514;DHT22;24282;48.400;10.808;2023-11-21T12:07:56;9.60;80.00
38514;DHT22;24282;48.400;10.808;2023-11-21T12:10:31;9.50;80.20
38514;DHT22;24282;48.400;10.808;2023-11-21T12:12:58;9.50;80.50
38514;DHT22;24282;48.400;10.808;2023-11-21T12:15:25;9.40;80.50
38514;DHT22;24282;48.400;10.808;2023-11-21T12:17:52;9.40;81.00
38514;DHT22;24282;48.400;10.808;2023-11-21T12:20:23;9.40;81.40
38514;DHT22;24282;48.400;10.808;2023-11-21T12:22:50;9.30;81.80
38514;DHT22;24282;48.400;10.808;2023-11-21T12:25:18;9.30;82.10
38514;DHT22;24282;48.400;10.808;2023-11-21T12:27:45;9.30;82.10
38514;DHT22;24282;48.400;10.808;2023-11-21T12:30:12;9.30;82.20
38514;DHT22;24282;48.400;10.808;2023-11-21T12:32:43;9.20;81.80
38514;DHT22;24282;48.400;10.808;2023-11-21T12:35:10;9.20;81.90
38514;DHT22;24282;48.400;10.808;2023-11-21T12:37:38;9.20;82.10
38514;DHT22;24282;48.400;10.808;2023-11-21T12:40:06;9.20;82.60
38514;DHT22;24282;48.400;10.808;2023-11-21T12:42:33;9.10;83.30
38514;DHT22;24282;48.400;10.808;2023-11-21T12:47:43;9.10;83.30
38514;DHT22;24282;48.400;10.808;2023-11-21T12:50:10;9.10;83.50
38514;DHT22;24282;48.400;10.808;2023-11-21T12:52:41;9.10;83.70
38514;DHT22;24282;48.400;10.808;2023-11-21T12:55:09;9.10;83.80
38514;DHT22;24282;48.400;10.808;2023-11-21T12:57:35;9.00;83.80
38514;DHT22;24282;48.400;10.808;2023-11-21T13:00:04;9.10;83.80
38514;DHT22;24282;48.400;10.808;2023-11-21T13:02:37;9.10;83.90
38514;DHT22;24282;48.400;10.808;2023-11-21T13:05:04;9.10;83.80
38514;DHT22;24282;48.400;10.808;2023-11-21T13:07:44;9.20;83.90
38514;DHT22;24282;48.400;10.808;2023-11-21T13:10:16;9.30;83.30
38514;DHT22;24282;48.400;10.808;2023-11-21T13:12:48;9.40;82.60
38514;DHT22;24282;48.400;10.808;2023-11-21T13:15:17;9.40;82.20
38514;DHT22;24282;48.400;10.808;2023-11-21T13:17:44;9.50;82.30
38514;DHT22;24282;48.400;10.808;2023-11-21T13:20:12;9.50;82.20
38514;DHT22;24282;48.400;10.808;2023-11-21T13:22:57;9.60;81.80
38514;DHT22;24282;48.400;10.808;2023-11-21T13:25:25;9.70;81.70
38514;DHT22;24282;48.400;10.808;2023-11-21T13:27:56;9.80;81.50
38514;DHT22;24282;48.400;10.808;2023-11-21T13:30:22;9.80;81.60
38514;DHT22;24282;48.400;10.808;2023-11-21T13:32:55;9.90;81.60
38514;DHT22;24282;48.400;10.808;2023-11-21T13:35:27;9.90;81.50
38514;DHT22;24282;48.400;10.808;2023-11-21T13:38:07;10.00;81.50
38514;DHT22;24282;48.400;10.808;2023-11-21T13:40:33;10.00;81.10
38514;DHT22;24282;48.400;10.808;2023-11-21T13:43:12;10.00;81.00
38514;DHT22;24282;48.400;10.808;2023-11-21T13:45:42;10.00;80.70
38514;DHT22;24282;48.400;10.808;2023-11-21T13:48:09;10.00;81.00
38514;DHT22;24282;48.400;10.808;2023-11-21T13:50:48;10.10;80.70
38514;DHT22;24282;48.400;10.808;2023-11-21T13:53:21;10.20;80.20
38514;DHT22;24282;48.400;10.808;2023-11-21T13:55:54;10.30;80.70
38514;DHT22;24282;48.400;10.808;2023-11-21T13:58:20;10.30;80.30
38514;DHT22;24282;48.400;10.808;2023-11-21T14:00:58;10.20;79.60
38514;DHT22;24282;48.400;10.808;2023-11-21T14:03:23;10.20;79.40
38514;DHT22;24282;48.400;10.808;2023-11-21T14:05:58;10.00;80.10
38514;DHT22;24282;48.400;10.808;2023-11-21T14:08:26;9.90;81.20
38514;DHT22;24282;48.400;10.808;2023-11-21T14:10:57;9.80;82.50
38514;DHT22;24282;48.400;10.808;2023-11-21T14:13:25;9.70;83.10
38514;DHT22;24282;48.400;10.808;2023-11-21T14:15:52;9.60;83.70
38514;DHT22;24282;48.400;10.808;2023-11-21T14:18:26;9.50;84.00
38514;DHT22;24282;48.400;10.808;2023-11-21T14:21:16;9.40;84.30
38514;DHT22;24282;48.400;10.808;2023-11-21T14:23:42;9.30;84.70
38514;DHT22;24282;48.400;10.808;2023-11-21T14:26:08;9.20;85.10
38514;DHT22;24282;48.400;10.808;2023-11-21T14:28:34;9.20;85.50
38514;DHT22;24282;48.400;10.808;2023-11-21T14:31:01;9.10;85.80
38514;DHT22;24282;48.400;10.808;2023-11-21T14:33:28;9.10;86.10
38514;DHT22;24282;48.400;10.808;2023-11-21T14:35:54;9.00;86.30
38514;DHT22;24282;48.400;10.808;2023-11-21T14:38:20;9.00;86.20
38514;DHT22;24282;48.400;10.808;2023-11-21T14:40:46;9.00;86.30
38514;DHT22;24282;48.400;10.808;2023-11-21T14:43:13;9.00;86.40
38514;DHT22;24282;48.400;10.808;2023-11-21T14:45:39;8.90;86.50
38514;DHT22;24282;48.400;10.808;2023-11-21T14:48:04;8.90;86.80
38514;DHT22;24282;48.400;10.808;2023-11-21T14:50:30;8.90;86.90
38514;DHT22;24282;48.400;10.808;2023-11-21T14:53:15;8.90;87.10
38514;DHT22;24282;48.400;10.808;2023-11-21T14:55:41;8.80;87.30
38514;DHT22;24282;48.400;10.808;2023-11-21T14:58:17;8.80;87.40
38514;DHT22;24282;48.400;10.808;2023-11-21T15:00:55;8.80;87.40
38514;DHT22;24282;48.400;10.808;2023-11-21T15:03:25;8.80;87.60
38514;DHT22;24282;48.400;10.808;2023-11-21T15:06:01;8.80;87.70
38514;DHT22;24282;48.400;10.808;2023-11-21T15:08:56;8.80;87.90
38514;DHT22;24282;48.400;10.808;2023-11-21T15:11:36;8.70;88.00
38514;DHT22;24282;48.400;10.808;2023-11-21T15:14:05;8.70;88.10
38514;DHT22;24282;48.400;10.808;2023-11-21T15:16:35;8.70;88.50
38514;DHT22;24282;48.400;10.808;2023-11-21T15:19:11;8.70;88.30
38514;DHT22;24282;48.400;10.808;2023-11-21T15:21:46;8.70;88.30
38514;DHT22;24282;48.400;10.808;2023-11-21T15:24:12;8.70;88.40
38514;DHT22;24282;48.400;10.808;2023-11-21T15:26:38;8.80;88.40
38514;DHT22;24282;48.400;10.808;2023-11-21T15:29:04;8.80;88.40
38514;DHT22;24282;48.400;10.808;2023-11-21T15:31:30;8.70;88.30
38514;DHT22;24282;48.400;10.808;2023-11-21T15:33:56;8.70;87.20
38514;DHT22;24282;48.400;10.808;2023-11-21T15:36:26;8.70;85.70
38514;DHT22;24282;48.400;10.808;2023-11-21T15:38:52;8.60;85.30
38514;DHT22;24282;48.400;10.808;2023-11-21T15:41:19;8.60;85.20
38514;DHT22;24282;48.400;10.808;2023-11-21T15:43:45;8.50;85.40
38514;DHT22;24282;48.400;10.808;2023-11-21T15:46:14;8.60;85.70
38514;DHT22;24282;48.400;10.808;2023-11-21T15:48:40;8.50;85.90
38514;DHT22;24282;48.400;10.808;2023-11-21T15:51:09;8.50;86.10
38514;DHT22;24282;48.400;10.808;2023-11-21T15:53:38;8.50;86.50